Time;durP1;ratioP1;P1;durP2;ratioP2;P2;SDS_P1;SDS_P2;PMS_P1;PMS_P2;Temp;Humidity;BMP_temperature;BMP_pressure;BME280_temperature;BME280_humidity;BME280_pressure;Samples;Min_cycle;Max_cycle;Signal;HPM_P1;HPM_P2
2022/07/20 00:00:49;;;;;;;4.90;2.08;;;;;;;;;;5073828;28;20017;-70
2022/07/20 00:03:15;;;;;;;6.43;2.35;;;;;;;;;;5076073;28;20528;-70
2022/07/20 00:05:42;;;;;;;4.28;2.00;;;;;;;;;;5086285;28;20043;-69
2022/07/20 00:08:09;;;;;;;7.97;2.65;;;;;;;;;;5075248;28;20110;-70
2022/07/20 00:13:20;;;;;;;2.55;1.98;;;;;;;;;;5073089;28;20039;-70
2022/07/20 00:15:46;;;;;;;2.58;1.88;;;;;;;;;;5086876;28;20110;-72
2022/07/20 00:18:12;;;;;;;5.03;2.15;;;;;;;;;;5074538;28;20040;-70
2022/07/20 00:20:39;;;;;;;3.70;2.10;;;;;;;;;;5088138;28;20470;-70
2022/07/20 00:23:05;;;;;;;4.13;1.90;;;;;;;;;;5093428;28;20159;-70
2022/07/20 00:25:31;;;;;;;7.88;2.13;;;;;;;;;;5072131;28;20017;-70
2022/07/20 00:27:58;;;;;;;2.75;2.10;;;;;;;;;;5072626;28;20042;-70
2022/07/20 00:30:24;;;;;;;3.92;2.33;;;;;;;;;;5073404;28;20056;-70
2022/07/20 00:32:50;;;;;;;3.92;2.20;;;;;;;;;;5079781;28;20025;-69
2022/07/20 00:35:17;;;;;;;3.35;2.05;;;;;;;;;;5078606;28;20052;-70
2022/07/20 00:37:43;;;;;;;5.93;2.47;;;;;;;;;;5075939;28;20032;-71
2022/07/20 00:40:10;;;;;;;6.70;2.05;;;;;;;;;;5083666;28;20107;-71
2022/07/20 00:42:37;;;;;;;4.28;2.38;;;;;;;;;;5076601;28;20028;-71
2022/07/20 00:45:04;;;;;;;5.20;2.17;;;;;;;;;;5098717;28;20411;-70
2022/07/20 00:47:30;;;;;;;3.70;2.30;;;;;;;;;;5077644;28;20025;-70
2022/07/20 00:49:56;;;;;;;3.00;1.85;;;;;;;;;;5073484;28;20050;-70
2022/07/20 00:52:22;;;;;;;7.32;2.20;;;;;;;;;;5071649;28;20522;-69
2022/07/20 00:54:49;;;;;;;3.88;2.17;;;;;;;;;;5094270;28;20024;-70
2022/07/20 00:57:16;;;;;;;3.85;2.08;;;;;;;;;;5072165;28;20549;-70
2022/07/20 00:59:42;;;;;;;4.82;2.00;;;;;;;;;;5070971;28;20398;-70
2022/07/20 01:02:09;;;;;;;7.13;2.30;;;;;;;;;;5078827;28;20028;-70
2022/07/20 01:04:35;;;;;;;3.13;2.00;;;;;;;;;;5083851;28;20028;-70
2022/07/20 01:07:01;;;;;;;3.92;2.08;;;;;;;;;;5077814;28;20048;-69
2022/07/20 01:09:27;;;;;;;4.13;2.25;;;;;;;;;;5074125;28;20017;-70
2022/07/20 01:11:53;;;;;;;5.47;2.05;;;;;;;;;;5073294;28;20027;-69
2022/07/20 01:14:19;;;;;;;3.78;2.13;;;;;;;;;;5072862;28;20069;-70
2022/07/20 01:16:46;;;;;;;3.90;1.98;;;;;;;;;;5090893;28;20117;-70
2022/07/20 01:19:12;;;;;;;4.18;2.20;;;;;;;;;;5079785;28;20019;-70
2022/07/20 01:21:41;;;;;;;4.38;2.20;;;;;;;;;;5083948;28;20035;-70
2022/07/20 01:24:15;;;;;;;4.35;2.15;;;;;;;;;;5076646;28;20029;-70
2022/07/20 01:26:43;;;;;;;4.15;2.20;;;;;;;;;;5083419;28;20025;-73
2022/07/20 01:29:09;;;;;;;4.38;2.00;;;;;;;;;;5077065;28;20020;-70
2022/07/20 01:31:36;;;;;;;7.45;2.60;;;;;;;;;;5075427;28;20020;-70
2022/07/20 01:34:02;;;;;;;3.60;2.10;;;;;;;;;;5083478;28;20040;-70
2022/07/20 01:36:28;;;;;;;6.80;2.40;;;;;;;;;;5091507;28;20365;-70
2022/07/20 01:38:54;;;;;;;3.33;2.30;;;;;;;;;;5087559;28;20016;-69
2022/07/20 01:41:21;;;;;;;4.47;2.20;;;;;;;;;;5075846;28;20024;-70
2022/07/20 01:43:47;;;;;;;3.42;2.20;;;;;;;;;;5075694;28;20021;-70
2022/07/20 01:46:13;;;;;;;3.58;2.10;;;;;;;;;;5079034;28;20115;-69
2022/07/20 01:48:39;;;;;;;3.65;2.15;;;;;;;;;;5085621;28;20053;-69
2022/07/20 01:51:05;;;;;;;3.83;2.30;;;;;;;;;;5091014;28;20048;-69
2022/07/20 01:53:31;;;;;;;4.07;2.17;;;;;;;;;;5081171;28;20469;-70
2022/07/20 01:55:58;;;;;;;3.72;2.20;;;;;;;;;;5083671;28;20029;-71
2022/07/20 01:58:24;;;;;;;4.18;2.20;;;;;;;;;;5089801;28;20385;-70
2022/07/20 02:00:50;;;;;;;5.00;2.20;;;;;;;;;;5087211;28;20031;-72
2022/07/20 02:03:16;;;;;;;4.75;2.30;;;;;;;;;;5074964;28;20096;-70
2022/07/20 02:05:43;;;;;;;4.38;2.20;;;;;;;;;;5075885;28;20036;-69
2022/07/20 02:08:09;;;;;;;4.45;2.20;;;;;;;;;;5084939;28;20011;-72
2022/07/20 02:10:35;;;;;;;3.58;1.98;;;;;;;;;;5079847;28;20104;-73
2022/07/20 02:13:01;;;;;;;3.95;2.20;;;;;;;;;;5074740;28;20035;-74
2022/07/20 02:18:16;;;;;;;5.55;2.47;;;;;;;;;;5090067;28;20097;-70
2022/07/20 02:20:42;;;;;;;4.50;2.58;;;;;;;;;;5089409;28;20114;-70
2022/07/20 02:23:10;;;;;;;8.38;2.90;;;;;;;;;;5092429;28;20036;-71
2022/07/20 02:25:37;;;;;;;7.00;2.80;;;;;;;;;;5092704;28;20416;-71
2022/07/20 02:28:03;;;;;;;4.22;2.45;;;;;;;;;;5091005;28;20078;-70
2022/07/20 02:30:29;;;;;;;4.65;2.38;;;;;;;;;;5081492;28;20594;-69
2022/07/20 02:32:55;;;;;;;4.13;2.33;;;;;;;;;;5089337;28;20504;-70
2022/07/20 02:35:21;;;;;;;5.60;2.50;;;;;;;;;;5091603;28;20036;-72
2022/07/20 02:37:47;;;;;;;7.25;2.20;;;;;;;;;;5086385;28;20056;-70
2022/07/20 02:40:14;;;;;;;4.20;2.50;;;;;;;;;;5081883;28;20017;-69
2022/07/20 02:42:40;;;;;;;3.78;2.50;;;;;;;;;;5088594;28;20044;-70
2022/07/20 02:45:06;;;;;;;4.18;2.40;;;;;;;;;;5092064;28;20024;-70
2022/07/20 02:47:41;;;;;;;3.25;2.20;;;;;;;;;;5091596;28;20024;-69
2022/07/20 02:50:07;;;;;;;5.25;2.22;;;;;;;;;;5091724;28;20059;-69
2022/07/20 02:52:33;;;;;;;6.18;2.30;;;;;;;;;;5087398;28;20048;-69
2022/07/20 02:54:59;;;;;;;8.50;2.45;;;;;;;;;;5084810;28;20085;-70
2022/07/20 02:57:25;;;;;;;5.32;2.28;;;;;;;;;;5079904;28;20036;-70
2022/07/20 02:59:51;;;;;;;6.63;2.40;;;;;;;;;;5074666;28;20050;-73
2022/07/20 03:02:17;;;;;;;3.92;2.50;;;;;;;;;;5084743;28;20066;-69
2022/07/20 03:04:43;;;;;;;4.22;2.33;;;;;;;;;;5074371;28;20029;-70
2022/07/20 03:07:09;;;;;;;4.03;2.22;;;;;;;;;;5073400;28;20020;-69
2022/07/20 03:09:35;;;;;;;4.72;2.38;;;;;;;;;;5082437;28;20401;-68
2022/07/20 03:12:01;;;;;;;6.55;2.30;;;;;;;;;;5082364;28;20377;-69
2022/07/20 03:14:27;;;;;;;4.78;2.42;;;;;;;;;;5089207;28;20389;-73
2022/07/20 03:16:53;;;;;;;6.68;2.33;;;;;;;;;;5074598;28;20036;-69
2022/07/20 03:19:20;;;;;;;3.28;2.40;;;;;;;;;;5074478;28;20052;-71
2022/07/20 03:21:46;;;;;;;8.43;2.30;;;;;;;;;;5073099;28;20453;-69
2022/07/20 03:24:12;;;;;;;6.57;2.40;;;;;;;;;;5090511;28;20427;-69
2022/07/20 03:26:38;;;;;;;6.20;2.58;;;;;;;;;;5073235;28;20094;-69
2022/07/20 03:29:04;;;;;;;6.18;2.20;;;;;;;;;;5073170;28;20020;-70
2022/07/20 03:31:30;;;;;;;5.25;2.40;;;;;;;;;;5074227;28;20032;-70
2022/07/20 03:33:56;;;;;;;7.10;2.80;;;;;;;;;;5088215;28;20052;-71
2022/07/20 03:36:22;;;;;;;2.80;2.08;;;;;;;;;;5085246;28;20047;-70
2022/07/20 03:38:48;;;;;;;7.63;2.80;;;;;;;;;;5080256;28;20016;-69
2022/07/20 03:41:14;;;;;;;6.10;2.25;;;;;;;;;;5073422;28;20035;-69
2022/07/20 03:43:40;;;;;;;4.07;2.40;;;;;;;;;;5072992;28;20063;-72
2022/07/20 03:46:06;;;;;;;4.88;2.40;;;;;;;;;;5085612;28;20036;-69
2022/07/20 03:48:32;;;;;;;4.63;2.40;;;;;;;;;;5072877;28;20033;-69
2022/07/20 03:50:59;;;;;;;4.80;2.25;;;;;;;;;;5083541;28;20040;-72
2022/07/20 03:53:25;;;;;;;6.90;2.40;;;;;;;;;;5076905;28;20521;-69
2022/07/20 03:55:51;;;;;;;7.30;2.70;;;;;;;;;;5089952;28;20481;-69
2022/07/20 03:58:17;;;;;;;6.82;2.45;;;;;;;;;;5076587;28;20099;-70
2022/07/20 04:00:43;;;;;;;6.13;2.10;;;;;;;;;;5072613;28;20425;-69
2022/07/20 04:03:09;;;;;;;5.47;2.33;;;;;;;;;;5074461;28;20082;-70
2022/07/20 04:05:35;;;;;;;4.63;2.03;;;;;;;;;;5074134;28;20025;-71
2022/07/20 04:08:01;;;;;;;7.63;2.50;;;;;;;;;;5086219;28;20607;-69
2022/07/20 04:10:27;;;;;;;7.43;2.83;;;;;;;;;;5082164;28;20067;-70
2022/07/20 04:12:53;;;;;;;11.20;2.80;;;;;;;;;;5109087;28;20397;-72
2022/07/20 04:15:19;;;;;;;11.70;2.60;;;;;;;;;;5097010;28;20549;-69
2022/07/20 04:17:45;;;;;;;11.02;2.70;;;;;;;;;;5078715;28;20119;-70
2022/07/20 04:20:11;;;;;;;8.38;2.33;;;;;;;;;;5078725;28;20013;-74
2022/07/20 04:22:38;;;;;;;12.00;3.60;;;;;;;;;;5082426;28;20036;-72
2022/07/20 04:25:04;;;;;;;11.43;3.10;;;;;;;;;;5073373;28;20382;-70
2022/07/20 04:27:30;;;;;;;12.15;3.05;;;;;;;;;;5076433;28;20012;-70
2022/07/20 04:29:56;;;;;;;14.77;2.72;;;;;;;;;;5073762;28;20025;-70
2022/07/20 04:32:22;;;;;;;12.48;3.05;;;;;;;;;;5076334;28;20039;-71
2022/07/20 04:34:48;;;;;;;22.40;3.05;;;;;;;;;;5080373;28;20111;-70
2022/07/20 04:37:14;;;;;;;11.75;3.78;;;;;;;;;;5078250;28;20039;-72
2022/07/20 04:39:40;;;;;;;20.27;3.45;;;;;;;;;;5075016;28;20488;-69
2022/07/20 04:42:06;;;;;;;17.23;3.53;;;;;;;;;;5085934;28;20032;-69
2022/07/20 04:44:32;;;;;;;18.65;3.53;;;;;;;;;;5077262;28;20082;-70
2022/07/20 04:46:58;;;;;;;19.13;3.10;;;;;;;;;;5072203;28;20385;-70
2022/07/20 04:49:25;;;;;;;12.23;2.97;;;;;;;;;;5082180;28;20028;-69
2022/07/20 04:51:51;;;;;;;19.25;3.72;;;;;;;;;;5084847;28;20048;-68
2022/07/20 04:54:18;;;;;;;32.58;5.93;;;;;;;;;;5082979;28;20037;-69
2022/07/20 04:56:44;;;;;;;26.10;4.43;;;;;;;;;;5077437;28;20032;-68
2022/07/20 04:59:10;;;;;;;16.13;3.30;;;;;;;;;;5087626;28;20063;-72
2022/07/20 05:01:36;;;;;;;16.35;3.90;;;;;;;;;;5081579;28;20024;-68
2022/07/20 05:04:03;;;;;;;15.10;3.67;;;;;;;;;;5087198;28;20031;-69
2022/07/20 05:06:29;;;;;;;8.98;2.92;;;;;;;;;;5076980;28;20070;-70
2022/07/20 05:08:55;;;;;;;8.38;3.63;;;;;;;;;;5080441;28;20028;-70
2022/07/20 05:11:21;;;;;;;13.35;3.40;;;;;;;;;;5085108;28;20071;-69
2022/07/20 05:13:47;;;;;;;18.63;4.32;;;;;;;;;;5077598;28;20021;-69
2022/07/20 05:16:13;;;;;;;15.70;4.18;;;;;;;;;;5075597;28;20029;-69
2022/07/20 05:18:39;;;;;;;11.10;2.90;;;;;;;;;;5081055;28;20066;-69
2022/07/20 05:21:05;;;;;;;11.00;3.30;;;;;;;;;;5093144;28;20028;-69
2022/07/20 05:23:31;;;;;;;11.10;3.00;;;;;;;;;;5086795;28;20377;-70
2022/07/20 05:25:57;;;;;;;5.38;3.20;;;;;;;;;;5075017;28;20195;-70
2022/07/20 05:28:24;;;;;;;10.70;3.92;;;;;;;;;;5076904;28;20025;-71
2022/07/20 05:30:50;;;;;;;8.43;3.30;;;;;;;;;;5083202;28;20028;-70
2022/07/20 05:33:17;;;;;;;8.25;3.75;;;;;;;;;;5079254;28;20020;-70
2022/07/20 05:35:43;;;;;;;7.35;3.42;;;;;;;;;;5079875;28;20111;-74
2022/07/20 05:38:09;;;;;;;7.25;3.15;;;;;;;;;;5077027;28;20035;-70
2022/07/20 05:40:35;;;;;;;7.28;3.30;;;;;;;;;;5074819;28;20021;-70
2022/07/20 05:43:01;;;;;;;18.98;4.38;;;;;;;;;;5079235;28;20036;-71
2022/07/20 05:45:27;;;;;;;19.98;4.53;;;;;;;;;;5075044;28;20028;-71
2022/07/20 05:47:53;;;;;;;14.27;3.70;;;;;;;;;;5075071;28;20107;-70
2022/07/20 05:50:20;;;;;;;8.57;3.33;;;;;;;;;;5085162;28;20062;-71
2022/07/20 05:52:46;;;;;;;7.88;3.42;;;;;;;;;;5085058;28;20051;-72
2022/07/20 05:55:12;;;;;;;12.50;4.60;;;;;;;;;;5091645;28;20017;-71
2022/07/20 05:57:38;;;;;;;9.40;4.30;;;;;;;;;;5075048;28;20099;-71
2022/07/20 06:00:05;;;;;;;7.75;3.50;;;;;;;;;;5082359;28;20105;-72
2022/07/20 06:02:31;;;;;;;10.25;3.72;;;;;;;;;;5087114;28;20422;-71
2022/07/20 06:04:57;;;;;;;11.10;3.50;;;;;;;;;;5075592;28;20111;-73
2022/07/20 06:07:23;;;;;;;5.90;3.35;;;;;;;;;;5080800;28;20032;-75
2022/07/20 06:09:49;;;;;;;9.25;3.25;;;;;;;;;;5079774;28;20031;-72
2022/07/20 06:12:15;;;;;;;6.57;3.35;;;;;;;;;;5074868;28;20499;-71
2022/07/20 06:14:41;;;;;;;6.60;3.53;;;;;;;;;;5084889;28;20028;-70
2022/07/20 06:17:07;;;;;;;4.60;3.20;;;;;;;;;;5088295;28;20180;-69
2022/07/20 06:19:33;;;;;;;8.48;3.80;;;;;;;;;;5085095;28;20020;-71
2022/07/20 06:21:59;;;;;;;5.53;3.50;;;;;;;;;;5089648;28;20084;-70
2022/07/20 06:24:25;;;;;;;7.38;3.13;;;;;;;;;;5074144;28;20032;-71
2022/07/20 06:26:51;;;;;;;7.82;3.60;;;;;;;;;;5082003;28;20036;-70
2022/07/20 06:29:17;;;;;;;10.82;3.70;;;;;;;;;;5085408;28;20036;-69
2022/07/20 06:31:44;;;;;;;7.68;3.35;;;;;;;;;;5092644;28;20494;-70
2022/07/20 06:34:10;;;;;;;6.10;3.30;;;;;;;;;;5089096;28;20020;-70
2022/07/20 06:36:36;;;;;;;18.42;4.00;;;;;;;;;;5084295;28;20040;-73
2022/07/20 06:39:03;;;;;;;9.32;3.20;;;;;;;;;;5083205;28;20024;-73
2022/07/20 06:41:29;;;;;;;11.43;3.78;;;;;;;;;;5087733;28;20028;-75
2022/07/20 06:43:55;;;;;;;10.70;3.80;;;;;;;;;;5079272;28;20025;-77
2022/07/20 06:46:21;;;;;;;9.57;3.72;;;;;;;;;;5076482;28;20024;-75
2022/07/20 06:48:47;;;;;;;6.50;3.47;;;;;;;;;;5075014;28;20021;-73
2022/07/20 06:51:13;;;;;;;14.00;3.75;;;;;;;;;;5084413;28;20059;-69
2022/07/20 06:53:39;;;;;;;6.97;3.47;;;;;;;;;;5088859;28;20032;-72
2022/07/20 06:56:05;;;;;;;7.10;3.90;;;;;;;;;;5089313;28;20123;-72
2022/07/20 06:58:31;;;;;;;8.35;4.00;;;;;;;;;;5076865;28;20474;-73
2022/07/20 07:00:58;;;;;;;5.80;3.67;;;;;;;;;;5082221;28;20064;-72
2022/07/20 07:03:24;;;;;;;8.35;3.80;;;;;;;;;;5080346;28;20079;-74
2022/07/20 07:05:50;;;;;;;10.50;3.85;;;;;;;;;;5080207;28;20088;-71
2022/07/20 07:08:16;;;;;;;11.93;4.65;;;;;;;;;;5075690;28;20016;-72
2022/07/20 07:10:42;;;;;;;9.50;4.28;;;;;;;;;;5075921;28;20100;-73
2022/07/20 07:13:08;;;;;;;11.55;4.47;;;;;;;;;;5080041;28;20397;-71
2022/07/20 07:15:34;;;;;;;12.07;4.38;;;;;;;;;;5080945;28;20068;-73
2022/07/20 07:18:00;;;;;;;12.32;5.10;;;;;;;;;;5077219;28;20071;-73
2022/07/20 07:20:26;;;;;;;12.93;5.30;;;;;;;;;;5088900;28;20024;-72
2022/07/20 07:22:52;;;;;;;12.43;4.85;;;;;;;;;;5084509;28;20105;-74
2022/07/20 07:25:18;;;;;;;11.18;4.60;;;;;;;;;;5078414;28;20031;-75
2022/07/20 07:27:44;;;;;;;13.35;4.85;;;;;;;;;;5083885;28;20170;-77
2022/07/20 07:30:11;;;;;;;13.98;5.30;;;;;;;;;;5076565;28;20032;-76
2022/07/20 07:32:37;;;;;;;12.07;5.50;;;;;;;;;;5080256;28;20044;-75
2022/07/20 07:35:03;;;;;;;9.02;4.50;;;;;;;;;;5073002;28;20024;-75
2022/07/20 07:37:29;;;;;;;10.50;4.68;;;;;;;;;;5087016;28;20028;-74
2022/07/20 07:39:55;;;;;;;10.60;4.57;;;;;;;;;;5072677;28;20087;-74
2022/07/20 07:42:22;;;;;;;8.77;4.00;;;;;;;;;;5072970;28;20363;-72
2022/07/20 07:44:49;;;;;;;9.98;4.35;;;;;;;;;;5076367;28;20490;-68
2022/07/20 07:47:15;;;;;;;7.88;4.20;;;;;;;;;;5086860;28;20039;-70
2022/07/20 07:49:41;;;;;;;8.15;3.83;;;;;;;;;;5075682;28;20050;-69
2022/07/20 07:52:07;;;;;;;12.15;3.45;;;;;;;;;;5088536;28;20570;-73
2022/07/20 07:54:33;;;;;;;31.23;4.57;;;;;;;;;;5077328;28;20394;-73
2022/07/20 07:56:59;;;;;;;14.43;4.28;;;;;;;;;;5081785;28;20371;-70
2022/07/20 07:59:25;;;;;;;15.02;3.45;;;;;;;;;;5082243;28;20051;-71
2022/07/20 08:01:51;;;;;;;7.60;2.30;;;;;;;;;;5079947;28;20105;-71
2022/07/20 08:04:17;;;;;;;6.45;2.70;;;;;;;;;;5084182;28;20111;-72
2022/07/20 08:06:43;;;;;;;6.60;2.70;;;;;;;;;;5089935;28;20519;-71
2022/07/20 08:09:10;;;;;;;4.68;2.65;;;;;;;;;;5080834;28;20083;-71
2022/07/20 08:11:36;;;;;;;6.38;2.63;;;;;;;;;;5072424;28;20027;-72
2022/07/20 08:14:02;;;;;;;6.13;2.35;;;;;;;;;;5086921;28;20419;-71
2022/07/20 08:16:29;;;;;;;6.75;2.50;;;;;;;;;;5072323;28;20036;-71
2022/07/20 08:18:55;;;;;;;6.10;2.78;;;;;;;;;;5084436;28;20428;-71
2022/07/20 08:21:21;;;;;;;11.38;3.10;;;;;;;;;;5072434;28;20477;-71
2022/07/20 08:23:47;;;;;;;5.00;2.75;;;;;;;;;;5086559;28;20119;-71
2022/07/20 08:26:16;;;;;;;5.75;2.60;;;;;;;;;;5072332;28;20104;-71
2022/07/20 08:28:42;;;;;;;8.05;3.13;;;;;;;;;;5071457;28;20102;-71
2022/07/20 08:31:08;;;;;;;7.05;3.08;;;;;;;;;;5093275;28;20046;-71
2022/07/20 08:33:34;;;;;;;8.77;2.60;;;;;;;;;;5080458;28;20025;-70
2022/07/20 08:36:00;;;;;;;4.93;2.75;;;;;;;;;;5086471;28;20094;-71
2022/07/20 08:38:26;;;;;;;12.73;2.65;;;;;;;;;;5072063;28;20034;-70
2022/07/20 08:40:52;;;;;;;5.05;2.42;;;;;;;;;;5082097;28;20032;-71
2022/07/20 08:43:19;;;;;;;10.05;2.85;;;;;;;;;;5071999;28;20023;-71
2022/07/20 08:45:47;;;;;;;11.43;2.80;;;;;;;;;;5071392;28;20049;-70
2022/07/20 08:48:13;;;;;;;7.97;2.55;;;;;;;;;;5082719;28;20024;-73
2022/07/20 08:50:39;;;;;;;6.63;2.70;;;;;;;;;;5075577;28;20063;-72
2022/07/20 08:53:05;;;;;;;5.53;2.70;;;;;;;;;;5081680;28;20115;-72
2022/07/20 08:55:31;;;;;;;6.07;2.30;;;;;;;;;;5080845;28;20017;-72
2022/07/20 08:57:58;;;;;;;5.45;2.30;;;;;;;;;;5071983;28;20420;-73
2022/07/20 09:00:24;;;;;;;4.50;2.20;;;;;;;;;;5082192;28;20024;-72
2022/07/20 09:02:50;;;;;;;19.60;3.70;;;;;;;;;;5082116;28;20096;-73
2022/07/20 09:05:16;;;;;;;5.55;2.20;;;;;;;;;;5071675;28;20027;-72
2022/07/20 09:07:43;;;;;;;6.20;2.40;;;;;;;;;;5073574;28;20017;-73
2022/07/20 09:10:12;;;;;;;8.07;2.25;;;;;;;;;;5072270;28;20142;-71
2022/07/20 09:12:56;;;;;;;8.07;2.33;;;;;;;;;;5080090;28;20023;-70
2022/07/20 09:15:27;;;;;;;7.15;2.80;;;;;;;;;;5085112;28;20477;-73
2022/07/20 09:18:07;;;;;;;7.10;2.40;;;;;;;;;;5086362;28;20038;-75
2022/07/20 09:20:34;;;;;;;4.97;2.40;;;;;;;;;;5082928;28;20031;-74
2022/07/20 09:23:05;;;;;;;4.60;2.30;;;;;;;;;;5091675;28;20083;-78
2022/07/20 09:25:31;;;;;;;7.85;2.90;;;;;;;;;;5093577;28;20047;-79
2022/07/20 09:27:58;;;;;;;7.40;2.40;;;;;;;;;;5090942;28;20020;-76
2022/07/20 09:30:24;;;;;;;3.58;2.25;;;;;;;;;;5088699;28;20024;-76
2022/07/20 09:32:50;;;;;;;10.18;2.80;;;;;;;;;;5088169;28;20046;-75
2022/07/20 09:35:17;;;;;;;4.47;2.20;;;;;;;;;;5086037;28;20026;-76
2022/07/20 09:37:43;;;;;;;10.35;2.80;;;;;;;;;;5091336;28;20036;-75
2022/07/20 09:40:09;;;;;;;2.95;2.30;;;;;;;;;;5089134;28;20062;-76
2022/07/20 09:42:38;;;;;;;4.25;2.17;;;;;;;;;;5092855;28;20978;-73
2022/07/20 09:45:22;;;;;;;8.13;2.40;;;;;;;;;;5080740;28;20024;-71
2022/07/20 09:48:12;;;;;;;5.70;2.40;;;;;;;;;;5083593;28;20012;-78
2022/07/20 09:50:39;;;;;;;3.83;2.35;;;;;;;;;;5072576;28;20173;-76
2022/07/20 09:53:07;;;;;;;5.05;2.35;;;;;;;;;;5054397;28;20090;-76
2022/07/20 09:55:34;;;;;;;4.55;2.28;;;;;;;;;;5067518;28;20043;-75
2022/07/20 09:58:00;;;;;;;5.30;2.53;;;;;;;;;;5066873;28;20044;-74
2022/07/20 10:00:27;;;;;;;4.82;2.45;;;;;;;;;;5076980;28;20027;-72
2022/07/20 10:02:55;;;;;;;16.48;3.00;;;;;;;;;;5072630;28;20032;-75
2022/07/20 10:05:22;;;;;;;4.15;2.25;;;;;;;;;;5065060;28;20506;-74
2022/07/20 10:07:49;;;;;;;3.58;2.33;;;;;;;;;;5069000;28;20036;-72
2022/07/20 10:10:15;;;;;;;17.92;2.80;;;;;;;;;;5075978;28;20070;-73
2022/07/20 10:12:41;;;;;;;4.28;2.42;;;;;;;;;;5074156;28;20040;-73
2022/07/20 10:15:18;;;;;;;9.65;3.22;;;;;;;;;;5080171;28;20036;-74
2022/07/20 10:17:45;;;;;;;7.30;2.63;;;;;;;;;;5082864;28;20448;-75
2022/07/20 10:20:33;;;;;;;5.93;2.70;;;;;;;;;;5069293;28;20051;-70
2022/07/20 10:23:17;;;;;;;9.50;2.92;;;;;;;;;;5074983;28;20036;-67
2022/07/20 10:25:44;;;;;;;4.85;2.63;;;;;;;;;;5068247;28;20060;-70
2022/07/20 10:28:26;;;;;;;7.35;2.83;;;;;;;;;;5091726;28;20032;-70
2022/07/20 10:30:53;;;;;;;9.45;2.88;;;;;;;;;;5087791;28;20474;-70
2022/07/20 10:33:21;;;;;;;6.05;2.70;;;;;;;;;;5094317;28;20028;-70
2022/07/20 10:35:48;;;;;;;6.22;2.60;;;;;;;;;;5094297;28;20460;-69
2022/07/20 10:38:18;;;;;;;4.97;2.33;;;;;;;;;;5094383;28;20054;-70
2022/07/20 10:44:05;;;;;;;4.57;2.45;;;;;;;;;;5079891;28;20051;-71
2022/07/20 10:46:33;;;;;;;4.10;2.35;;;;;;;;;;5085132;28;20043;-70
2022/07/20 10:48:59;;;;;;;5.63;2.38;;;;;;;;;;5088955;28;20098;-73
2022/07/20 10:51:25;;;;;;;6.35;2.78;;;;;;;;;;5085984;27;20040;-74
2022/07/20 10:53:51;;;;;;;5.07;2.40;;;;;;;;;;5090716;28;20045;-72
2022/07/20 10:56:28;;;;;;;6.60;2.85;;;;;;;;;;5080525;28;20040;-74
2022/07/20 10:58:59;;;;;;;3.33;2.35;;;;;;;;;;5089969;28;20020;-74
2022/07/20 11:01:25;;;;;;;4.75;2.50;;;;;;;;;;5086045;28;20023;-75
2022/07/20 11:03:51;;;;;;;4.03;2.45;;;;;;;;;;5088674;28;20383;-75
2022/07/20 11:06:22;;;;;;;6.57;2.35;;;;;;;;;;5093314;28;20115;-75
2022/07/20 11:08:53;;;;;;;6.95;2.72;;;;;;;;;;5093562;28;20012;-72
2022/07/20 11:11:21;;;;;;;9.73;2.63;;;;;;;;;;5089719;28;20035;-73
2022/07/20 11:13:47;;;;;;;6.00;2.40;;;;;;;;;;5081629;28;20694;-73
2022/07/20 11:16:14;;;;;;;6.82;2.50;;;;;;;;;;5089152;28;20477;-73
2022/07/20 11:18:40;;;;;;;12.75;3.22;;;;;;;;;;5087762;28;20036;-72
2022/07/20 11:21:08;;;;;;;3.90;2.45;;;;;;;;;;5088354;28;20024;-74
2022/07/20 11:23:44;;;;;;;4.53;2.42;;;;;;;;;;5091484;28;20028;-74
2022/07/20 11:26:14;;;;;;;5.15;2.50;;;;;;;;;;5090595;28;20020;-75
2022/07/20 11:28:48;;;;;;;6.10;2.53;;;;;;;;;;5074051;28;20355;-75
2022/07/20 11:31:14;;;;;;;5.30;2.80;;;;;;;;;;5075472;28;20111;-75
2022/07/20 11:33:42;;;;;;;8.32;2.95;;;;;;;;;;5082523;28;20024;-76
2022/07/20 11:36:10;;;;;;;7.32;2.60;;;;;;;;;;5083996;28;20721;-73
2022/07/20 11:38:39;;;;;;;6.40;2.72;;;;;;;;;;5079111;28;20046;-78
2022/07/20 11:41:07;;;;;;;6.95;2.92;;;;;;;;;;5084082;28;20389;-82
2022/07/20 11:43:33;;;;;;;5.13;2.60;;;;;;;;;;5073113;28;20033;-74
2022/07/20 11:46:14;;;;;;;4.05;2.70;;;;;;;;;;5083755;28;20028;-73
2022/07/20 11:48:40;;;;;;;6.38;2.50;;;;;;;;;;5082969;28;20020;-73
2022/07/20 11:51:07;;;;;;;14.48;3.10;;;;;;;;;;5091087;28;20036;-75
2022/07/20 11:53:38;;;;;;;3.28;2.40;;;;;;;;;;5087054;28;20038;-76
2022/07/20 11:56:06;;;;;;;6.53;2.60;;;;;;;;;;5090273;28;20031;-72
2022/07/20 11:58:36;;;;;;;5.03;2.55;;;;;;;;;;5089010;28;20039;-71
2022/07/20 12:01:07;;;;;;;4.35;2.45;;;;;;;;;;5089937;28;20412;-72
2022/07/20 12:03:37;;;;;;;4.88;2.83;;;;;;;;;;5083301;28;20060;-73
2022/07/20 12:06:07;;;;;;;8.30;2.90;;;;;;;;;;5084264;28;20085;-79
2022/07/20 12:08:34;;;;;;;6.28;2.55;;;;;;;;;;5099148;28;20897;-76
2022/07/20 12:11:00;;;;;;;7.93;2.75;;;;;;;;;;5084935;28;20028;-75
2022/07/20 12:13:27;;;;;;;4.93;2.25;;;;;;;;;;5080760;28;20028;-75
2022/07/20 12:16:01;;;;;;;16.70;3.75;;;;;;;;;;5081733;28;20031;-74
2022/07/20 12:18:46;;;;;;;10.82;2.70;;;;;;;;;;5085985;28;20036;-74
2022/07/20 12:21:18;;;;;;;7.68;3.08;;;;;;;;;;5088834;28;20024;-72
2022/07/20 12:23:45;;;;;;;8.13;2.65;;;;;;;;;;5086980;28;20030;-82
2022/07/20 12:26:25;;;;;;;6.05;3.05;;;;;;;;;;5086530;28;20523;-70
2022/07/20 12:28:51;;;;;;;9.43;3.00;;;;;;;;;;5084970;28;20083;-71
2022/07/20 12:31:18;;;;;;;7.93;3.08;;;;;;;;;;5082818;28;20476;-68
2022/07/20 12:34:00;;;;;;;5.32;2.67;;;;;;;;;;5087506;28;20131;-74
2022/07/20 12:36:35;;;;;;;7.07;3.03;;;;;;;;;;5075473;28;20036;-73
2022/07/20 12:39:01;;;;;;;4.15;2.83;;;;;;;;;;5080179;28;20023;-71
2022/07/20 12:41:27;;;;;;;5.28;2.58;;;;;;;;;;5092168;28;20035;-72
2022/07/20 12:43:53;;;;;;;5.28;2.55;;;;;;;;;;5078893;28;20016;-73
2022/07/20 12:46:19;;;;;;;8.23;3.08;;;;;;;;;;5083843;28;20029;-73
2022/07/20 12:48:50;;;;;;;8.02;2.55;;;;;;;;;;5090432;28;20346;-72
2022/07/20 12:51:16;;;;;;;6.55;2.42;;;;;;;;;;5092193;28;20040;-71
2022/07/20 12:53:43;;;;;;;6.60;2.42;;;;;;;;;;5091974;28;20032;-73
2022/07/20 12:56:10;;;;;;;5.32;2.60;;;;;;;;;;5085193;28;20157;-72
2022/07/20 12:58:36;;;;;;;5.35;2.55;;;;;;;;;;5086616;28;20024;-72
2022/07/20 13:01:03;;;;;;;7.38;2.90;;;;;;;;;;5085319;28;20060;-72
2022/07/20 13:03:29;;;;;;;6.20;2.60;;;;;;;;;;5086065;28;20473;-73
2022/07/20 13:05:55;;;;;;;10.15;2.72;;;;;;;;;;5077173;28;20116;-68
2022/07/20 13:08:22;;;;;;;8.38;2.70;;;;;;;;;;5088104;28;20028;-68
2022/07/20 13:10:48;;;;;;;5.82;2.95;;;;;;;;;;5082885;28;20024;-73
2022/07/20 13:13:14;;;;;;;6.15;2.58;;;;;;;;;;5085228;28;20025;-75
2022/07/20 13:15:40;;;;;;;3.75;2.50;;;;;;;;;;5091880;28;20028;-76
2022/07/20 13:18:07;;;;;;;4.30;2.70;;;;;;;;;;5093565;28;20031;-74
2022/07/20 13:20:34;;;;;;;5.75;2.60;;;;;;;;;;5084371;28;20485;-78
2022/07/20 13:23:00;;;;;;;3.85;2.25;;;;;;;;;;5090048;28;20481;-73
2022/07/20 13:25:26;;;;;;;5.43;2.60;;;;;;;;;;5084000;28;20402;-72
2022/07/20 13:27:52;;;;;;;3.88;2.72;;;;;;;;;;5081016;28;20039;-72
2022/07/20 13:30:18;;;;;;;3.53;2.67;;;;;;;;;;5076550;28;20028;-73
2022/07/20 13:32:44;;;;;;;8.13;2.80;;;;;;;;;;5090344;28;20137;-72
2022/07/20 13:35:10;;;;;;;6.93;3.20;;;;;;;;;;5094417;28;20028;-69
2022/07/20 13:37:38;;;;;;;5.55;2.78;;;;;;;;;;5094087;28;20089;-71
2022/07/20 13:40:05;;;;;;;3.38;2.50;;;;;;;;;;5080016;28;20473;-73
2022/07/20 13:42:31;;;;;;;4.97;2.72;;;;;;;;;;5087753;28;20106;-76
2022/07/20 13:44:57;;;;;;;7.00;2.78;;;;;;;;;;5091688;28;20020;-72
2022/07/20 13:47:23;;;;;;;3.28;2.63;;;;;;;;;;5087199;28;20028;-71
2022/07/20 13:49:49;;;;;;;11.55;3.25;;;;;;;;;;5085006;28;20053;-75
2022/07/20 13:52:17;;;;;;;7.22;3.00;;;;;;;;;;5082756;28;20040;-71
2022/07/20 13:54:43;;;;;;;9.95;3.00;;;;;;;;;;5089656;28;20535;-76
2022/07/20 13:57:09;;;;;;;6.57;2.70;;;;;;;;;;5085894;28;20118;-73
2022/07/20 13:59:35;;;;;;;6.75;2.55;;;;;;;;;;5091547;28;20020;-74
2022/07/20 14:02:01;;;;;;;8.07;2.85;;;;;;;;;;5078460;28;20028;-74
2022/07/20 14:04:28;;;;;;;3.95;2.70;;;;;;;;;;5083579;28;20028;-74
2022/07/20 14:06:54;;;;;;;3.88;2.60;;;;;;;;;;5100334;28;20028;-72
2022/07/20 14:09:20;;;;;;;6.18;2.88;;;;;;;;;;5092564;28;20382;-72
2022/07/20 14:11:46;;;;;;;3.80;2.45;;;;;;;;;;5089733;28;20024;-72
2022/07/20 14:14:12;;;;;;;5.63;2.60;;;;;;;;;;5088284;28;20028;-72
2022/07/20 14:16:40;;;;;;;6.82;2.95;;;;;;;;;;5102122;28;20049;-73
2022/07/20 14:19:06;;;;;;;3.63;2.60;;;;;;;;;;5077951;28;20039;-73
2022/07/20 14:21:32;;;;;;;5.00;2.60;;;;;;;;;;5093649;28;20039;-72
2022/07/20 14:23:58;;;;;;;4.53;2.58;;;;;;;;;;5087405;28;20118;-74
2022/07/20 14:26:24;;;;;;;9.18;2.70;;;;;;;;;;5086974;28;20016;-75
2022/07/20 14:28:51;;;;;;;5.63;2.70;;;;;;;;;;5082775;28;20078;-74
2022/07/20 14:31:17;;;;;;;4.95;2.90;;;;;;;;;;5084273;28;20469;-69
2022/07/20 14:33:43;;;;;;;11.00;2.92;;;;;;;;;;5078686;28;20491;-72
2022/07/20 14:36:09;;;;;;;5.70;2.60;;;;;;;;;;5081301;28;20063;-75
2022/07/20 14:38:35;;;;;;;5.50;2.80;;;;;;;;;;5081053;28;20107;-76
2022/07/20 14:41:01;;;;;;;6.78;2.88;;;;;;;;;;5086680;28;20020;-91
2022/07/20 14:43:27;;;;;;;4.18;2.20;;;;;;;;;;5090018;28;20037;-72
2022/07/20 14:45:53;;;;;;;6.80;2.70;;;;;;;;;;5085679;28;20394;-70
2022/07/20 14:48:19;;;;;;;7.03;2.67;;;;;;;;;;5089773;28;20020;-73